Foster, Oklahoma
Current Conditions -  °F | °C
As of 1:35 AM on Sunday 23 Nov 2014 (Local Time) from KPVJ Reporting Station
Overcast Overcast  
Wind Chill: 56°   Ceiling: 1200
Heat Index: 56°   Visibility: 10mi
Dew Point: 55°   Wind: 3mph
Humidity: 97%   Direction: 160°SSE
Pressure: 29.6"   Gusts: NA
Location:  34.62°N, 97.49°W
Report Text: KPVJ 230735Z AUTO 16003KT 10SM OVC012 14/13 A2960 RMK AO2 T01350130
Loading
Personal Weather Stations






























Interactive Weather Map New forecast layout! Learn more

10-Day Weather Forecast

Advertisements
Track Severe Weather on mobile